Station Historical Data
Daily Summary for May 29, 2017 Units:  Both    English   Metric
« Previous Day
Next Day »
Daily Weekly Monthly Yearly Custom
  High: Low: Average:
Temperature: 72.1 °F /  22.3 °C 59.1 °F /  15.1 °C 65.1 °F /  18.4 °C
Dew Point: 60.2 °F /  15.7 °C 44.0 °F /  6.7 °C 55.6 °F /  13.1 °C
Humidity: 93% 37% 74%
Wind Speed: 13.0mph /  20.9km/h - 3.8mph /  6.1km/h
Wind Gust: 21.0mph /  33.8km/h - -
Wind- - SW
Pressure: 29.88 in /  1011.7 hPa 29.66 in /  1004.3 hPa -
Precipitation: 0.00 in /  0 mm    
Historical Graphs
 
 
Tabular Data for May 29, 2017
Time Temperature Dew Point Pressure Wind Wind Speed Wind Gust Humidity Rainfall Rate (Hourly)
00:04 66.4 °F /  19.1 °C 59.3 °F /  15.2 °C 29.70in /  1005.6hPa SW 2.0mph /  3.2km/h 6.0mph /  9.7km/h 78% 0.00in /  0mm
00:09 66.4 °F /  19.1 °C 59.3 °F /  15.2 °C 29.70in /  1005.6hPa SSW 3.0mph /  4.8km/h 6.0mph /  9.7km/h 78% 0.00in /  0mm
00:14 66.4 °F /  19.1 °C 59.3 °F /  15.2 °C 29.70in /  1005.6hPa SSW 2.0mph /  3.2km/h 4.0mph /  6.4km/h 78% 0.00in /  0mm
00:19 66.4 °F /  19.1 °C 59.3 °F /  15.2 °C 29.70in /  1005.6hPa SSW 1.0mph /  1.6km/h 5.0mph /  8km/h 78% 0.00in /  0mm
00:24 66.3 °F /  19.1 °C 59.2 °F /  15.1 °C 29.70in /  1005.6hPa SSW 3.0mph /  4.8km/h 7.0mph /  11.3km/h 78% 0.00in /  0mm
00:29 66.3 °F /  19.1 °C 59.2 °F /  15.1 °C 29.70in /  1005.6hPa WSW 6.0mph /  9.7km/h 8.0mph /  12.9km/h 78% 0.00in /  0mm
00:34 66.3 °F /  19.1 °C 59.2 °F /  15.1 °C 29.69in /  1005.3hPa SW 4.0mph /  6.4km/h 8.0mph /  12.9km/h 78% 0.00in /  0mm
00:39 66.3 °F /  19.1 °C 59.2 °F /  15.1 °C 29.69in /  1005.3hPa SW 4.0mph /  6.4km/h 8.0mph /  12.9km/h 78% 0.00in /  0mm
00:44 66.3 °F /  19.1 °C 59.2 °F /  15.1 °C 29.69in /  1005.3hPa SW 4.0mph /  6.4km/h 9.0mph /  14.5km/h 78% 0.00in /  0mm
00:49 66.2 °F /  19 °C 59.5 °F /  15.3 °C 29.69in /  1005.3hPa SSW 2.0mph /  3.2km/h 5.0mph /  8km/h 79% 0.00in /  0mm
00:54 66.2 °F /  19 °C 59.5 °F /  15.3 °C 29.69in /  1005.3hPa WSW 4.0mph /  6.4km/h 7.0mph /  11.3km/h 79% 0.00in /  0mm
00:59 66.1 °F /  18.9 °C 59.4 °F /  15.2 °C 29.69in /  1005.3hPa SW 3.0mph /  4.8km/h 6.0mph /  9.7km/h 79% 0.00in /  0mm
01:04 66.0 °F /  18.9 °C 59.3 °F /  15.2 °C 29.69in /  1005.3hPa SSW 3.0mph /  4.8km/h 7.0mph /  11.3km/h 79% 0.00in /  0mm
01:09 65.9 °F /  18.8 °C 59.2 °F /  15.1 °C 29.68in /  1005hPa South 1.0mph /  1.6km/h 6.0mph /  9.7km/h 79% 0.00in /  0mm
01:14 65.8 °F /  18.8 °C 59.1 °F /  15.1 °C 29.68in /  1005hPa South 2.0mph /  3.2km/h 5.0mph /  8km/h 79% 0.00in /  0mm
01:19 65.8 °F /  18.8 °C 59.1 °F /  15.1 °C 29.68in /  1005hPa South 2.0mph /  3.2km/h 5.0mph /  8km/h 79% 0.00in /  0mm
01:24 65.7 °F /  18.7 °C 59.4 °F /  15.2 °C 29.67in /  1004.6hPa SE 1.0mph /  1.6km/h 5.0mph /  8km/h 80% 0.00in /  0mm
01:29 65.6 °F /  18.7 °C 59.3 °F /  15.2 °C 29.67in /  1004.6hPa SE 1.0mph /  1.6km/h 3.0mph /  4.8km/h 80% 0.00in /  0mm
01:34 65.5 °F /  18.6 °C 59.2 °F /  15.1 °C 29.67in /  1004.6hPa South 1.0mph /  1.6km/h 3.0mph /  4.8km/h 80% 0.00in /  0mm
01:39 65.3 °F /  18.5 °C 59.0 °F /  15 °C 29.66in /  1004.3hPa South 1.0mph /  1.6km/h 4.0mph /  6.4km/h 80% 0.00in /  0mm
01:44 65.3 °F /  18.5 °C 59.0 °F /  15 °C 29.66in /  1004.3hPa South 1.0mph /  1.6km/h 4.0mph /  6.4km/h 80% 0.00in /  0mm
01:49 65.2 °F /  18.4 °C 59.2 °F /  15.1 °C 29.66in /  1004.3hPa SSW 1.0mph /  1.6km/h 4.0mph /  6.4km/h 81% 0.00in /  0mm
01:54 65.2 °F /  18.4 °C 59.2 °F /  15.1 °C 29.66in /  1004.3hPa SSW 1.0mph /  1.6km/h 4.0mph /  6.4km/h 81% 0.00in /  0mm
01:59 65.2 °F /  18.4 °C 59.2 °F /  15.1 °C 29.66in /  1004.3hPa Calm   4.0mph /  6.4km/h 81% 0.00in /  0mm
02:04 65.1 °F /  18.4 °C 59.1 °F /  15.1 °C 29.66in /  1004.3hPa SW 1.0mph /  1.6km/h 4.0mph /  6.4km/h 81% 0.00in /  0mm
02:09 64.9 °F /  18.3 °C 58.9 °F /  14.9 °C 29.66in /  1004.3hPa Calm   3.0mph /  4.8km/h 81% 0.00in /  0mm
02:14 64.9 °F /  18.3 °C 59.3 °F /  15.2 °C 29.66in /  1004.3hPa SSW 1.0mph /  1.6km/h 4.0mph /  6.4km/h 82% 0.00in /  0mm
02:19 64.8 °F /  18.2 °C 59.2 °F /  15.1 °C 29.67in /  1004.6hPa Calm   4.0mph /  6.4km/h 82% 0.00in /  0mm
02:24 64.8 °F /  18.2 °C 59.2 °F /  15.1 °C 29.67in /  1004.6hPa SSW 2.0mph /  3.2km/h 4.0mph /  6.4km/h 82% 0.00in /  0mm
02:29 64.8 °F /  18.2 °C 59.2 °F /  15.1 °C 29.66in /  1004.3hPa Calm   3.0mph /  4.8km/h 82% 0.00in /  0mm
02:34 64.8 °F /  18.2 °C 59.2 °F /  15.1 °C 29.67in /  1004.6hPa SSW 1.0mph /  1.6km/h 3.0mph /  4.8km/h 82% 0.00in /  0mm
02:39 64.7 °F /  18.2 °C 59.4 °F /  15.2 °C 29.67in /  1004.6hPa SW 1.0mph /  1.6km/h 3.0mph /  4.8km/h 83% 0.00in /  0mm
02:44 64.6 °F /  18.1 °C 59.3 °F /  15.2 °C 29.67in /  1004.6hPa SW 2.0mph /  3.2km/h 3.0mph /  4.8km/h 83% 0.00in /  0mm
02:49 64.5 °F /  18.1 °C 59.2 °F /  15.1 °C 29.67in /  1004.6hPa SW 1.0mph /  1.6km/h 6.0mph /  9.7km/h 83% 0.00in /  0mm
02:54 64.5 °F /  18.1 °C 59.2 °F /  15.1 °C 29.68in /  1005hPa SW 1.0mph /  1.6km/h 6.0mph /  9.7km/h 83% 0.00in /  0mm
02:59 64.5 °F /  18.1 °C 59.6 °F /  15.3 °C 29.68in /  1005hPa SW 2.0mph /  3.2km/h 5.0mph /  8km/h 84% 0.00in /  0mm
03:04 64.5 °F /  18.1 °C 59.6 °F /  15.3 °C 29.68in /  1005hPa Calm   4.0mph /  6.4km/h 84% 0.00in /  0mm
03:09 64.5 °F /  18.1 °C 59.6 °F /  15.3 °C 29.69in /  1005.3hPa SW 2.0mph /  3.2km/h 4.0mph /  6.4km/h 84% 0.00in /  0mm
03:14 64.5 °F /  18.1 °C 59.6 °F /  15.3 °C 29.69in /  1005.3hPa Calm   4.0mph /  6.4km/h 84% 0.00in /  0mm
03:19 64.4 °F /  18 °C 59.5 °F /  15.3 °C 29.69in /  1005.3hPa SSW 3.0mph /  4.8km/h 3.0mph /  4.8km/h 84% 0.00in /  0mm
03:24 64.3 °F /  17.9 °C 59.7 °F /  15.4 °C 29.69in /  1005.3hPa SSW 1.0mph /  1.6km/h 4.0mph /  6.4km/h 85% 0.00in /  0mm
03:29 64.2 °F /  17.9 °C 59.6 °F /  15.3 °C 29.70in /  1005.6hPa Calm   3.0mph /  4.8km/h 85% 0.00in /  0mm
03:34 64.2 °F /  17.9 °C 59.6 °F /  15.3 °C 29.69in /  1005.3hPa Calm   2.0mph /  3.2km/h 85% 0.00in /  0mm
03:39 64.1 °F /  17.8 °C 59.8 °F /  15.4 °C 29.69in /  1005.3hPa SW 1.0mph /  1.6km/h 5.0mph /  8km/h 86% 0.00in /  0mm
03:44 64.0 °F /  17.8 °C 59.7 °F /  15.4 °C 29.69in /  1005.3hPa SW 1.0mph /  1.6km/h 5.0mph /  8km/h 86% 0.00in /  0mm
03:49 64.0 °F /  17.8 °C 59.7 °F /  15.4 °C 29.69in /  1005.3hPa SW 2.0mph /  3.2km/h 5.0mph /  8km/h 86% 0.00in /  0mm
03:54 63.9 °F /  17.7 °C 59.6 °F /  15.3 °C 29.69in /  1005.3hPa SW 2.0mph /  3.2km/h 4.0mph /  6.4km/h 86% 0.00in /  0mm
03:59 63.9 °F /  17.7 °C 59.6 °F /  15.3 °C 29.69in /  1005.3hPa SW 3.0mph /  4.8km/h 4.0mph /  6.4km/h 86% 0.00in /  0mm
04:04 63.8 °F /  17.7 °C 59.9 °F /  15.5 °C 29.69in /  1005.3hPa SW 1.0mph /  1.6km/h 3.0mph /  4.8km/h 87% 0.00in /  0mm
04:09 63.8 °F /  17.7 °C 59.9 °F /  15.5 °C 29.69in /  1005.3hPa SW 1.0mph /  1.6km/h 4.0mph /  6.4km/h 87% 0.00in /  0mm
04:14 63.7 °F /  17.6 °C 59.8 °F /  15.4 °C 29.69in /  1005.3hPa WSW 1.0mph /  1.6km/h 5.0mph /  8km/h 87% 0.00in /  0mm
04:19 63.7 °F /  17.6 °C 59.8 °F /  15.4 °C 29.69in /  1005.3hPa WSW 2.0mph /  3.2km/h 5.0mph /  8km/h 87% 0.00in /  0mm
04:24 63.7 °F /  17.6 °C 60.1 °F /  15.6 °C 29.69in /  1005.3hPa WSW 3.0mph /  4.8km/h 5.0mph /  8km/h 88% 0.00in /  0mm
04:29 63.6 °F /  17.6 °C 59.7 °F /  15.4 °C 29.69in /  1005.3hPa WSW 3.0mph /  4.8km/h 6.0mph /  9.7km/h 87% 0.00in /  0mm
04:34 63.4 °F /  17.4 °C 59.5 °F /  15.3 °C 29.69in /  1005.3hPa WSW 3.0mph /  4.8km/h 4.0mph /  6.4km/h 87% 0.00in /  0mm
04:39 63.1 °F /  17.3 °C 59.2 °F /  15.1 °C 29.70in /  1005.6hPa WSW 3.0mph /  4.8km/h 7.0mph /  11.3km/h 87% 0.00in /  0mm
04:44 62.7 °F /  17.1 °C 58.8 °F /  14.9 °C 29.70in /  1005.6hPa West 2.0mph /  3.2km/h 7.0mph /  11.3km/h 87% 0.00in /  0mm
04:49 62.4 °F /  16.9 °C 58.5 °F /  14.7 °C 29.70in /  1005.6hPa WSW 3.0mph /  4.8km/h 7.0mph /  11.3km/h 87% 0.00in /  0mm
04:54 62.2 °F /  16.8 °C 58.3 °F /  14.6 °C 29.70in /  1005.6hPa SW 3.0mph /  4.8km/h 6.0mph /  9.7km/h 87% 0.00in /  0mm
04:59 62.0 °F /  16.7 °C 58.1 °F /  14.5 °C 29.70in /  1005.6hPa WSW 5.0mph /  8km/h 7.0mph /  11.3km/h 87% 0.00in /  0mm
05:04 61.9 °F /  16.6 °C 58.0 °F /  14.4 °C 29.70in /  1005.6hPa WSW 3.0mph /  4.8km/h 6.0mph /  9.7km/h 87% 0.00in /  0mm
05:09 61.7 °F /  16.5 °C 57.8 °F /  14.3 °C 29.70in /  1005.6hPa SW 3.0mph /  4.8km/h 6.0mph /  9.7km/h 87% 0.00in /  0mm
05:14 61.5 °F /  16.4 °C 57.6 °F /  14.2 °C 29.70in /  1005.6hPa SW 4.0mph /  6.4km/h 8.0mph /  12.9km/h 87% 0.00in /  0mm
05:19 61.3 °F /  16.3 °C 57.7 °F /  14.3 °C 29.70in /  1005.6hPa WSW 5.0mph /  8km/h 9.0mph /  14.5km/h 88% 0.00in /  0mm
05:24 61.1 °F /  16.2 °C 57.5 °F /  14.2 °C 29.70in /  1005.6hPa SW 5.0mph /  8km/h 9.0mph /  14.5km/h 88% 0.00in /  0mm
05:29 61.0 °F /  16.1 °C 57.4 °F /  14.1 °C 29.70in /  1005.6hPa SW 5.0mph /  8km/h 9.0mph /  14.5km/h 88% 0.00in /  0mm
05:34 60.8 °F /  16 °C 57.2 °F /  14 °C 29.70in /  1005.6hPa WNW 6.0mph /  9.7km/h 14.0mph /  22.5km/h 88% 0.00in /  0mm
05:39 60.7 °F /  15.9 °C 57.4 °F /  14.1 °C 29.70in /  1005.6hPa WSW 2.0mph /  3.2km/h 8.0mph /  12.9km/h 89% 0.00in /  0mm
05:44 60.6 °F /  15.9 °C 57.3 °F /  14.1 °C 29.70in /  1005.6hPa WSW 4.0mph /  6.4km/h 9.0mph /  14.5km/h 89% 0.01in /  0.25mm
05:49 60.5 °F /  15.8 °C 57.2 °F /  14 °C 29.70in /  1005.6hPa WSW 5.0mph /  8km/h 6.0mph /  9.7km/h 89% 0.01in /  0.25mm
05:54 60.4 °F /  15.8 °C 57.1 °F /  13.9 °C 29.71in /  1006hPa SW 3.0mph /  4.8km/h 8.0mph /  12.9km/h 89% 0.01in /  0.25mm
05:59 60.4 °F /  15.8 °C 57.5 °F /  14.2 °C 29.71in /  1006hPa SW 3.0mph /  4.8km/h 8.0mph /  12.9km/h 90% 0.02in /  0.51mm
06:04 60.5 °F /  15.8 °C 57.6 °F /  14.2 °C 29.71in /  1006hPa West 3.0mph /  4.8km/h 5.0mph /  8km/h 90% 0.02in /  0.51mm
06:09 60.5 °F /  15.8 °C 57.6 °F /  14.2 °C 29.72in /  1006.3hPa WSW 3.0mph /  4.8km/h 6.0mph /  9.7km/h 90% 0.02in /  0.51mm
06:14 60.4 °F /  15.8 °C 57.5 °F /  14.2 °C 29.72in /  1006.3hPa WSW 3.0mph /  4.8km/h 8.0mph /  12.9km/h 90% 0.02in /  0.51mm
06:19 60.4 °F /  15.8 °C 57.5 °F /  14.2 °C 29.73in /  1006.7hPa WSW 4.0mph /  6.4km/h 9.0mph /  14.5km/h 90% 0.02in /  0.51mm
06:24 60.3 °F /  15.7 °C 57.4 °F /  14.1 °C 29.73in /  1006.7hPa WSW 4.0mph /  6.4km/h 10.0mph /  16.1km/h 90% 0.03in /  0.76mm
06:29 60.3 °F /  15.7 °C 57.7 °F /  14.3 °C 29.74in /  1007hPa WSW 4.0mph /  6.4km/h 10.0mph /  16.1km/h 91% 0.03in /  0.76mm
06:34 60.3 °F /  15.7 °C 57.7 °F /  14.3 °C 29.74in /  1007hPa WSW 3.0mph /  4.8km/h 8.0mph /  12.9km/h 91% 0.03in /  0.76mm
06:39 60.3 °F /  15.7 °C 57.7 °F /  14.3 °C 29.73in /  1006.7hPa WSW 3.0mph /  4.8km/h 6.0mph /  9.7km/h 91% 0.03in /  0.76mm
06:44 60.3 °F /  15.7 °C 57.7 °F /  14.3 °C 29.73in /  1006.7hPa SW 5.0mph /  8km/h 6.0mph /  9.7km/h 91% 0.03in /  0.76mm
06:49 60.2 °F /  15.7 °C 57.6 °F /  14.2 °C 29.73in /  1006.7hPa SW 3.0mph /  4.8km/h 6.0mph /  9.7km/h 91% 0.03in /  0.76mm
06:54 60.2 °F /  15.7 °C 57.6 °F /  14.2 °C 29.73in /  1006.7hPa South 2.0mph /  3.2km/h 4.0mph /  6.4km/h 91% 0.04in /  1.02mm
06:59 60.0 °F /  15.6 °C 57.4 °F /  14.1 °C 29.73in /  1006.7hPa SW 4.0mph /  6.4km/h 7.0mph /  11.3km/h 91% 0.03in /  0.76mm
07:04 60.0 °F /  15.6 °C 57.7 °F /  14.3 °C 29.73in /  1006.7hPa SW 1.0mph /  1.6km/h 6.0mph /  9.7km/h 92% 0.04in /  1.02mm
07:09 59.9 °F /  15.5 °C 57.6 °F /  14.2 °C 29.74in /  1007hPa SW 3.0mph /  4.8km/h 8.0mph /  12.9km/h 92% 0.04in /  1.02mm
07:14 59.9 °F /  15.5 °C 57.6 °F /  14.2 °C 29.74in /  1007hPa SW 3.0mph /  4.8km/h 8.0mph /  12.9km/h 92% 0.04in /  1.02mm
07:19 59.9 °F /  15.5 °C 57.6 °F /  14.2 °C 29.74in /  1007hPa SW 3.0mph /  4.8km/h 5.0mph /  8km/h 92% 0.07in /  1.78mm
07:24 59.9 °F /  15.5 °C 57.6 °F /  14.2 °C 29.74in /  1007hPa WSW 2.0mph /  3.2km/h 5.0mph /  8km/h 92% 0.07in /  1.78mm
07:29 60.0 °F /  15.6 °C 57.7 °F /  14.3 °C 29.74in /  1007hPa SW 3.0mph /  4.8km/h 6.0mph /  9.7km/h 92% 0.08in /  2.03mm
07:34 60.0 °F /  15.6 °C 57.7 °F /  14.3 °C 29.74in /  1007hPa WSW 1.0mph /  1.6km/h 5.0mph /  8km/h 92% 0.13in /  3.3mm
07:39 60.0 °F /  15.6 °C 57.7 °F /  14.3 °C 29.74in /  1007hPa WSW 2.0mph /  3.2km/h 5.0mph /  8km/h 92% 0.16in /  4.06mm
07:44 60.0 °F /  15.6 °C 57.7 °F /  14.3 °C 29.74in /  1007hPa WSW 2.0mph /  3.2km/h 6.0mph /  9.7km/h 92% 0.18in /  4.57mm
07:49 60.1 °F /  15.6 °C 57.8 °F /  14.3 °C 29.74in /  1007hPa SW 2.0mph /  3.2km/h 5.0mph /  8km/h 92% 0.19in /  4.83mm
07:54 60.1 °F /  15.6 °C 57.8 °F /  14.3 °C 29.74in /  1007hPa SW 3.0mph /  4.8km/h 4.0mph /  6.4km/h 92% 0.20in /  5.08mm
07:59 60.0 °F /  15.6 °C 57.7 °F /  14.3 °C 29.74in /  1007hPa SSW 2.0mph /  3.2km/h 5.0mph /  8km/h 92% 0.22in /  5.59mm
08:04 60.0 °F /  15.6 °C 58.0 °F /  14.4 °C 29.74in /  1007hPa SW 2.0mph /  3.2km/h 7.0mph /  11.3km/h 93% 0.23in /  5.84mm
08:09 60.3 °F /  15.7 °C 58.3 °F /  14.6 °C 29.74in /  1007hPa SW 2.0mph /  3.2km/h 4.0mph /  6.4km/h 93% 0.23in /  5.84mm
08:14 60.4 °F /  15.8 °C 58.4 °F /  14.7 °C 29.74in /  1007hPa SW 2.0mph /  3.2km/h 5.0mph /  8km/h 93% 0.24in /  6.1mm
08:19 60.6 °F /  15.9 °C 58.6 °F /  14.8 °C 29.75in /  1007.3hPa SW 2.0mph /  3.2km/h 6.0mph /  9.7km/h 93% 0.21in /  5.33mm
08:24 60.6 °F /  15.9 °C 58.6 °F /  14.8 °C 29.75in /  1007.3hPa SW 2.0mph /  3.2km/h 6.0mph /  9.7km/h 93% 0.20in /  5.08mm
08:29 61.0 °F /  16.1 °C 59.0 °F /  15 °C 29.75in /  1007.3hPa WSW 2.0mph /  3.2km/h 4.0mph /  6.4km/h 93% 0.19in /  4.83mm
08:34 61.1 °F /  16.2 °C 59.1 °F /  15.1 °C 29.75in /  1007.3hPa WSW 1.0mph /  1.6km/h 5.0mph /  8km/h 93% 0.15in /  3.81mm
08:39 61.3 °F /  16.3 °C 59.3 °F /  15.2 °C 29.75in /  1007.3hPa WSW 4.0mph /  6.4km/h 4.0mph /  6.4km/h 93% 0.12in /  3.05mm
08:44 61.4 °F /  16.3 °C 59.4 °F /  15.2 °C 29.75in /  1007.3hPa SW 2.0mph /  3.2km/h 6.0mph /  9.7km/h 93% 0.09in /  2.29mm
08:49 61.4 °F /  16.3 °C 59.4 °F /  15.2 °C 29.75in /  1007.3hPa SW 3.0mph /  4.8km/h 6.0mph /  9.7km/h 93% 0.08in /  2.03mm
08:54 61.3 °F /  16.3 °C 59.3 °F /  15.2 °C 29.75in /  1007.3hPa SW 3.0mph /  4.8km/h 5.0mph /  8km/h 93% 0.06in /  1.52mm
08:59 61.4 °F /  16.3 °C 59.4 °F /  15.2 °C 29.75in /  1007.3hPa SW 3.0mph /  4.8km/h 5.0mph /  8km/h 93% 0.04in /  1.02mm
09:04 61.5 °F /  16.4 °C 59.5 °F /  15.3 °C 29.76in /  1007.7hPa SW 2.0mph /  3.2km/h 5.0mph /  8km/h 93% 0.02in /  0.51mm
09:09 61.7 °F /  16.5 °C 59.7 °F /  15.4 °C 29.76in /  1007.7hPa SW 2.0mph /  3.2km/h 5.0mph /  8km/h 93% 0.02in /  0.51mm
09:14 61.7 °F /  16.5 °C 59.7 °F /  15.4 °C 29.76in /  1007.7hPa SW 3.0mph /  4.8km/h 7.0mph /  11.3km/h 93% 0.01in /  0.25mm
09:19 61.7 °F /  16.5 °C 59.7 °F /  15.4 °C 29.76in /  1007.7hPa SSW 1.0mph /  1.6km/h 6.0mph /  9.7km/h 93% 0.01in /  0.25mm
09:24 62.0 °F /  16.7 °C 59.6 °F /  15.3 °C 29.76in /  1007.7hPa SW 3.0mph /  4.8km/h 6.0mph /  9.7km/h 92% 0.01in /  0.25mm
09:29 62.2 °F /  16.8 °C 60.2 °F /  15.7 °C 29.75in /  1007.3hPa SW 3.0mph /  4.8km/h 7.0mph /  11.3km/h 93% 0.01in /  0.25mm
09:34 62.3 °F /  16.8 °C 59.9 °F /  15.5 °C 29.76in /  1007.7hPa SW 5.0mph /  8km/h 9.0mph /  14.5km/h 92% 0.00in /  0mm
09:39 62.1 °F /  16.7 °C 59.7 °F /  15.4 °C 29.76in /  1007.7hPa WSW 3.0mph /  4.8km/h 9.0mph /  14.5km/h 92% 0.00in /  0mm
09:44 62.1 °F /  16.7 °C 59.7 °F /  15.4 °C 29.76in /  1007.7hPa SW 4.0mph /  6.4km/h 9.0mph /  14.5km/h 92% 0.00in /  0mm
09:49 61.5 °F /  16.4 °C 59.2 °F /  15.1 °C 29.76in /  1007.7hPa SW 5.0mph /  8km/h 13.0mph /  20.9km/h 92% 0.00in /  0mm
09:54 61.0 °F /  16.1 °C 58.7 °F /  14.8 °C 29.76in /  1007.7hPa SW 6.0mph /  9.7km/h 13.0mph /  20.9km/h 92% 0.00in /  0mm
09:59 60.6 °F /  15.9 °C 58.3 °F /  14.6 °C 29.77in /  1008hPa SW 7.0mph /  11.3km/h 15.0mph /  24.1km/h 92% 0.00in /  0mm
10:04 60.3 °F /  15.7 °C 58.0 °F /  14.4 °C 29.77in /  1008hPa SW 8.0mph /  12.9km/h 15.0mph /  24.1km/h 92% 0.00in /  0mm
10:09 60.0 °F /  15.6 °C 57.7 °F /  14.3 °C 29.77in /  1008hPa SW 12.0mph /  19.3km/h 12.0mph /  19.3km/h 92% 0.00in /  0mm
10:14 59.6 °F /  15.3 °C 57.3 °F /  14.1 °C 29.77in /  1008hPa WSW 6.0mph /  9.7km/h 12.0mph /  19.3km/h 92% 0.00in /  0mm
10:19 59.5 °F /  15.3 °C 57.2 °F /  14 °C 29.77in /  1008hPa WSW 5.0mph /  8km/h 15.0mph /  24.1km/h 92% 0.00in /  0mm
10:24 59.7 °F /  15.4 °C 57.7 °F /  14.3 °C 29.77in /  1008hPa SW 12.0mph /  19.3km/h 16.0mph /  25.7km/h 93% 0.00in /  0mm
10:29 59.5 °F /  15.3 °C 57.5 °F /  14.2 °C 29.77in /  1008hPa West 6.0mph /  9.7km/h 12.0mph /  19.3km/h 93% 0.00in /  0mm
10:34 59.4 °F /  15.2 °C 57.1 °F /  13.9 °C 29.77in /  1008hPa SW 3.0mph /  4.8km/h 16.0mph /  25.7km/h 92% 0.00in /  0mm
10:39 59.3 °F /  15.2 °C 57.0 °F /  13.9 °C 29.77in /  1008hPa West 5.0mph /  8km/h 15.0mph /  24.1km/h 92% 0.00in /  0mm
10:44 59.3 °F /  15.2 °C 57.3 °F /  14.1 °C 29.77in /  1008hPa SW 7.0mph /  11.3km/h 15.0mph /  24.1km/h 93% 0.00in /  0mm
10:49 59.4 °F /  15.2 °C 57.4 °F /  14.1 °C 29.77in /  1008hPa SW 6.0mph /  9.7km/h 13.0mph /  20.9km/h 93% 0.00in /  0mm
10:54 59.4 °F /  15.2 °C 57.4 °F /  14.1 °C 29.78in /  1008.4hPa SW 6.0mph /  9.7km/h 15.0mph /  24.1km/h 93% 0.00in /  0mm
10:59 59.3 °F /  15.2 °C 57.3 °F /  14.1 °C 29.78in /  1008.4hPa SW 7.0mph /  11.3km/h 15.0mph /  24.1km/h 93% 0.00in /  0mm
11:04 59.3 °F /  15.2 °C 57.3 °F /  14.1 °C 29.79in /  1008.7hPa SW 7.0mph /  11.3km/h 13.0mph /  20.9km/h 93% 0.00in /  0mm
11:09 59.1 °F /  15.1 °C 57.1 °F /  13.9 °C 29.79in /  1008.7hPa SSW 7.0mph /  11.3km/h 13.0mph /  20.9km/h 93% 0.00in /  0mm
11:14 59.3 °F /  15.2 °C 57.3 °F /  14.1 °C 29.79in /  1008.7hPa WSW 6.0mph /  9.7km/h 13.0mph /  20.9km/h 93% 0.00in /  0mm
11:19 59.4 °F /  15.2 °C 57.4 °F /  14.1 °C 29.79in /  1008.7hPa WSW 5.0mph /  8km/h 10.0mph /  16.1km/h 93% 0.00in /  0mm
11:24 59.4 °F /  15.2 °C 57.4 °F /  14.1 °C 29.79in /  1008.7hPa WSW 5.0mph /  8km/h 11.0mph /  17.7km/h 93% 0.00in /  0mm
11:29 59.4 °F /  15.2 °C 57.4 °F /  14.1 °C 29.80in /  1009hPa WSW 6.0mph /  9.7km/h 12.0mph /  19.3km/h 93% 0.00in /  0mm
11:34 59.6 °F /  15.3 °C 57.6 °F /  14.2 °C 29.81in /  1009.4hPa West 6.0mph /  9.7km/h 14.0mph /  22.5km/h 93% 0.00in /  0mm
11:39 60.0 °F /  15.6 °C 58.0 °F /  14.4 °C 29.81in /  1009.4hPa West 5.0mph /  8km/h 13.0mph /  20.9km/h 93% 0.00in /  0mm
11:44 60.4 °F /  15.8 °C 58.4 °F /  14.7 °C 29.81in /  1009.4hPa WSW 6.0mph /  9.7km/h 13.0mph /  20.9km/h 93% 0.00in /  0mm
11:49 60.7 °F /  15.9 °C 58.4 °F /  14.7 °C 29.81in /  1009.4hPa West 7.0mph /  11.3km/h 9.0mph /  14.5km/h 92% 0.00in /  0mm
11:54 60.8 °F /  16 °C 58.5 °F /  14.7 °C 29.81in /  1009.4hPa SW 5.0mph /  8km/h 12.0mph /  19.3km/h 92% 0.00in /  0mm
11:59 61.1 °F /  16.2 °C 58.1 °F /  14.5 °C 29.81in /  1009.4hPa SSW 5.0mph /  8km/h 12.0mph /  19.3km/h 90% 0.00in /  0mm
12:04 62.1 °F /  16.7 °C 58.8 °F /  14.9 °C 29.81in /  1009.4hPa WSW 6.0mph /  9.7km/h 11.0mph /  17.7km/h 89% 0.00in /  0mm
12:09 62.2 °F /  16.8 °C 58.6 °F /  14.8 °C 29.81in /  1009.4hPa SW 10.0mph /  16.1km/h 13.0mph /  20.9km/h 88% 0.00in /  0mm
12:14 61.9 °F /  16.6 °C 58.3 °F /  14.6 °C 29.81in /  1009.4hPa SW 7.0mph /  11.3km/h 14.0mph /  22.5km/h 88% 0.00in /  0mm
12:19 62.5 °F /  16.9 °C 58.9 °F /  14.9 °C 29.81in /  1009.4hPa SW 6.0mph /  9.7km/h 14.0mph /  22.5km/h 88% 0.00in /  0mm
12:24 62.7 °F /  17.1 °C 58.8 °F /  14.9 °C 29.82in /  1009.7hPa WSW 5.0mph /  8km/h 11.0mph /  17.7km/h 87% 0.00in /  0mm
12:29 62.7 °F /  17.1 °C 58.1 °F /  14.5 °C 29.81in /  1009.4hPa SW 6.0mph /  9.7km/h 15.0mph /  24.1km/h 85% 0.00in /  0mm
12:34 63.6 °F /  17.6 °C 58.7 °F /  14.8 °C 29.81in /  1009.4hPa SW 8.0mph /  12.9km/h 15.0mph /  24.1km/h 84% 0.00in /  0mm
12:39 64.8 °F /  18.2 °C 59.2 °F /  15.1 °C 29.82in /  1009.7hPa WSW 7.0mph /  11.3km/h 15.0mph /  24.1km/h 82% 0.00in /  0mm
12:44 64.1 °F /  17.8 °C 57.8 °F /  14.3 °C 29.82in /  1009.7hPa WSW 10.0mph /  16.1km/h 13.0mph /  20.9km/h 80% 0.00in /  0mm
12:49 64.6 °F /  18.1 °C 58.6 °F /  14.8 °C 29.81in /  1009.4hPa West 4.0mph /  6.4km/h 15.0mph /  24.1km/h 81% 0.00in /  0mm
12:54 65.7 °F /  18.7 °C 59.7 °F /  15.4 °C 29.82in /  1009.7hPa West 6.0mph /  9.7km/h 12.0mph /  19.3km/h 81% 0.00in /  0mm
12:59 66.5 °F /  19.2 °C 59.4 °F /  15.2 °C 29.82in /  1009.7hPa West 9.0mph /  14.5km/h 13.0mph /  20.9km/h 78% 0.00in /  0mm
13:04 65.6 °F /  18.7 °C 57.8 °F /  14.3 °C 29.82in /  1009.7hPa SW 6.0mph /  9.7km/h 14.0mph /  22.5km/h 76% 0.00in /  0mm
13:09 65.9 °F /  18.8 °C 58.5 °F /  14.7 °C 29.83in /  1010hPa West 10.0mph /  16.1km/h 15.0mph /  24.1km/h 77% 0.00in /  0mm
13:14 65.6 °F /  18.7 °C 58.6 °F /  14.8 °C 29.83in /  1010hPa WSW 8.0mph /  12.9km/h 15.0mph /  24.1km/h 78% 0.00in /  0mm
13:19 65.8 °F /  18.8 °C 58.7 °F /  14.8 °C 29.83in /  1010hPa SW 7.0mph /  11.3km/h 15.0mph /  24.1km/h 78% 0.00in /  0mm
13:24 65.8 °F /  18.8 °C 57.7 °F /  14.3 °C 29.82in /  1009.7hPa SW 7.0mph /  11.3km/h 14.0mph /  22.5km/h 75% 0.00in /  0mm
13:29 65.9 °F /  18.8 °C 58.8 °F /  14.9 °C 29.82in /  1009.7hPa West 3.0mph /  4.8km/h 14.0mph /  22.5km/h 78% 0.00in /  0mm
13:34 66.2 °F /  19 °C 58.4 °F /  14.7 °C 29.82in /  1009.7hPa SW 7.0mph /  11.3km/h 16.0mph /  25.7km/h 76% 0.00in /  0mm
13:39 66.6 °F /  19.2 °C 59.2 °F /  15.1 °C 29.82in /  1009.7hPa SW 8.0mph /  12.9km/h 13.0mph /  20.9km/h 77% 0.00in /  0mm
13:44 66.8 °F /  19.3 °C 58.6 °F /  14.8 °C 29.82in /  1009.7hPa WSW 7.0mph /  11.3km/h 13.0mph /  20.9km/h 75% 0.00in /  0mm
13:54 67.4 °F /  19.7 °C 58.1 °F /  14.5 °C 29.82in /  1009.7hPa SSW 5.0mph /  8km/h 13.0mph /  20.9km/h 72% 0.00in /  0mm
13:59 67.6 °F /  19.8 °C 59.0 °F /  15 °C 29.82in /  1009.7hPa SW 7.0mph /  11.3km/h 14.0mph /  22.5km/h 74% 0.00in /  0mm
14:04 67.7 °F /  19.8 °C 57.2 °F /  14 °C 29.82in /  1009.7hPa West 6.0mph /  9.7km/h 20.0mph /  32.2km/h 69% 0.00in /  0mm
14:09 68.2 °F /  20.1 °C 59.2 °F /  15.1 °C 29.82in /  1009.7hPa South 5.0mph /  8km/h 12.0mph /  19.3km/h 73% 0.00in /  0mm
14:14 68.1 °F /  20.1 °C 58.3 °F /  14.6 °C 29.82in /  1009.7hPa SW 7.0mph /  11.3km/h 16.0mph /  25.7km/h 71% 0.00in /  0mm
14:19 67.6 °F /  19.8 °C 57.9 °F /  14.4 °C 29.82in /  1009.7hPa SW 8.0mph /  12.9km/h 16.0mph /  25.7km/h 71% 0.00in /  0mm
14:24 67.5 °F /  19.7 °C 57.8 °F /  14.3 °C 29.83in /  1010hPa WSW 9.0mph /  14.5km/h 20.0mph /  32.2km/h 71% 0.00in /  0mm
14:29 67.7 °F /  19.8 °C 58.3 °F /  14.6 °C 29.83in /  1010hPa WSW 2.0mph /  3.2km/h 16.0mph /  25.7km/h 72% 0.00in /  0mm
14:34 66.5 °F /  19.2 °C 57.2 °F /  14 °C 29.83in /  1010hPa SW 8.0mph /  12.9km/h 18.0mph /  29km/h 72% 0.00in /  0mm
14:39 66.8 °F /  19.3 °C 57.9 °F /  14.4 °C 29.83in /  1010hPa WSW 8.0mph /  12.9km/h 17.0mph /  27.4km/h 73% 0.00in /  0mm
14:44 67.4 °F /  19.7 °C 58.1 °F /  14.5 °C 29.83in /  1010hPa WSW 8.0mph /  12.9km/h 17.0mph /  27.4km/h 72% 0.00in /  0mm
14:49 68.0 °F /  20 °C 59.0 °F /  15 °C 29.83in /  1010hPa WSW 8.0mph /  12.9km/h 16.0mph /  25.7km/h 73% 0.00in /  0mm
14:54 67.4 °F /  19.7 °C 58.1 °F /  14.5 °C 29.83in /  1010hPa WSW 7.0mph /  11.3km/h 17.0mph /  27.4km/h 72% 0.00in /  0mm
14:59 67.1 °F /  19.5 °C 58.2 °F /  14.6 °C 29.83in /  1010hPa WSW 9.0mph /  14.5km/h 17.0mph /  27.4km/h 73% 0.00in /  0mm
15:04 68.0 °F /  20 °C 59.0 °F /  15 °C 29.83in /  1010hPa West 6.0mph /  9.7km/h 11.0mph /  17.7km/h 73% 0.00in /  0mm
15:09 68.0 °F /  20 °C 58.2 °F /  14.6 °C 29.83in /  1010hPa WSW 5.0mph /  8km/h 15.0mph /  24.1km/h 71% 0.00in /  0mm
15:14 67.1 °F /  19.5 °C 57.4 °F /  14.1 °C 29.84in /  1010.4hPa SW 7.0mph /  11.3km/h 15.0mph /  24.1km/h 71% 0.00in /  0mm
15:19 67.4 °F /  19.7 °C 58.1 °F /  14.5 °C 29.84in /  1010.4hPa SW 7.0mph /  11.3km/h 16.0mph /  25.7km/h 72% 0.00in /  0mm
15:24 67.9 °F /  19.9 °C 58.5 °F /  14.7 °C 29.84in /  1010.4hPa West 13.0mph /  20.9km/h 14.0mph /  22.5km/h 72% 0.00in /  0mm
15:29 67.9 °F /  19.9 °C 58.5 °F /  14.7 °C 29.84in /  1010.4hPa WSW 5.0mph /  8km/h 15.0mph /  24.1km/h 72% 0.00in /  0mm
15:34 68.2 °F /  20.1 °C 58.0 °F /  14.4 °C 29.84in /  1010.4hPa WSW 11.0mph /  17.7km/h 15.0mph /  24.1km/h 70% 0.00in /  0mm
15:39 67.7 °F /  19.8 °C 57.6 °F /  14.2 °C 29.84in /  1010.4hPa West 5.0mph /  8km/h 15.0mph /  24.1km/h 70% 0.00in /  0mm
15:44 67.9 °F /  19.9 °C 56.9 °F /  13.8 °C 29.84in /  1010.4hPa WSW 8.0mph /  12.9km/h 17.0mph /  27.4km/h 68% 0.00in /  0mm
15:49 68.5 °F /  20.3 °C 57.5 °F /  14.2 °C 29.84in /  1010.4hPa WSW 7.0mph /  11.3km/h 17.0mph /  27.4km/h 68% 0.00in /  0mm
15:54 68.4 °F /  20.2 °C 56.6 °F /  13.7 °C 29.84in /  1010.4hPa SW 7.0mph /  11.3km/h 14.0mph /  22.5km/h 66% 0.00in /  0mm
15:59 68.7 °F /  20.4 °C 55.6 °F /  13.1 °C 29.84in /  1010.4hPa SSW 7.0mph /  11.3km/h 18.0mph /  29km/h 63% 0.00in /  0mm
16:04 68.8 °F /  20.4 °C 55.7 °F /  13.2 °C 29.84in /  1010.4hPa SW 7.0mph /  11.3km/h 18.0mph /  29km/h 63% 0.00in /  0mm
16:09 68.7 °F /  20.4 °C 55.6 °F /  13.1 °C 29.84in /  1010.4hPa WNW 5.0mph /  8km/h 17.0mph /  27.4km/h 63% 0.00in /  0mm
16:14 68.8 °F /  20.4 °C 54.8 °F /  12.7 °C 29.84in /  1010.4hPa WSW 7.0mph /  11.3km/h 17.0mph /  27.4km/h 61% 0.00in /  0mm
16:19 68.5 °F /  20.3 °C 54.5 °F /  12.5 °C 29.85in /  1010.7hPa SW 7.0mph /  11.3km/h 14.0mph /  22.5km/h 61% 0.00in /  0mm
16:24 68.7 °F /  20.4 °C 54.3 °F /  12.4 °C 29.85in /  1010.7hPa WSW 8.0mph /  12.9km/h 18.0mph /  29km/h 60% 0.00in /  0mm
16:29 68.8 °F /  20.4 °C 53.4 °F /  11.9 °C 29.85in /  1010.7hPa West 10.0mph /  16.1km/h 13.0mph /  20.9km/h 58% 0.00in /  0mm
16:34 68.8 °F /  20.4 °C 52.9 °F /  11.6 °C 29.86in /  1011.1hPa SSW 13.0mph /  20.9km/h 21.0mph /  33.8km/h 57% 0.00in /  0mm
16:39 68.7 °F /  20.4 °C 52.4 °F /  11.3 °C 29.86in /  1011.1hPa WSW 9.0mph /  14.5km/h 18.0mph /  29km/h 56% 0.00in /  0mm
16:44 68.6 °F /  20.3 °C 51.8 °F /  11 °C 29.85in /  1010.7hPa WSW 10.0mph /  16.1km/h 19.0mph /  30.6km/h 55% 0.00in /  0mm
16:49 68.9 °F /  20.5 °C 52.1 °F /  11.2 °C 29.85in /  1010.7hPa WSW 9.0mph /  14.5km/h 19.0mph /  30.6km/h 55% 0.00in /  0mm
16:54 69.2 °F /  20.7 °C 52.3 °F /  11.3 °C 29.86in /  1011.1hPa WSW 9.0mph /  14.5km/h 17.0mph /  27.4km/h 55% 0.00in /  0mm
16:59 69.8 °F /  21 °C 52.9 °F /  11.6 °C 29.86in /  1011.1hPa WSW 8.0mph /  12.9km/h 17.0mph /  27.4km/h 55% 0.00in /  0mm
17:04 70.0 °F /  21.1 °C 52.6 °F /  11.4 °C 29.86in /  1011.1hPa WSW 6.0mph /  9.7km/h 14.0mph /  22.5km/h 54% 0.00in /  0mm
17:09 69.8 °F /  21 °C 52.4 °F /  11.3 °C 29.86in /  1011.1hPa SW 7.0mph /  11.3km/h 17.0mph /  27.4km/h 54% 0.00in /  0mm
17:14 70.0 °F /  21.1 °C 52.6 °F /  11.4 °C 29.86in /  1011.1hPa West 4.0mph /  6.4km/h 12.0mph /  19.3km/h 54% 0.00in /  0mm
17:19 70.3 °F /  21.3 °C 52.9 °F /  11.6 °C 29.86in /  1011.1hPa SW 6.0mph /  9.7km/h 11.0mph /  17.7km/h 54% 0.00in /  0mm
17:24 70.8 °F /  21.6 °C 51.8 °F /  11 °C 29.85in /  1010.7hPa SW 5.0mph /  8km/h 15.0mph /  24.1km/h 51% 0.00in /  0mm
17:29 71.1 °F /  21.7 °C 52.0 °F /  11.1 °C 29.85in /  1010.7hPa SW 9.0mph /  14.5km/h 12.0mph /  19.3km/h 51% 0.00in /  0mm
17:34 71.2 °F /  21.8 °C 52.7 °F /  11.5 °C 29.86in /  1011.1hPa WSW 4.0mph /  6.4km/h 16.0mph /  25.7km/h 52% 0.00in /  0mm
17:39 71.6 °F /  22 °C 51.4 °F /  10.8 °C 29.86in /  1011.1hPa WSW 4.0mph /  6.4km/h 16.0mph /  25.7km/h 49% 0.00in /  0mm
17:44 71.7 °F /  22.1 °C 50.4 °F /  10.2 °C 29.86in /  1011.1hPa WSW 7.0mph /  11.3km/h 16.0mph /  25.7km/h 47% 0.00in /  0mm
17:49 71.7 °F /  22.1 °C 49.8 °F /  9.9 °C 29.86in /  1011.1hPa SW 7.0mph /  11.3km/h 18.0mph /  29km/h 46% 0.00in /  0mm
17:54 71.9 °F /  22.2 °C 49.4 °F /  9.7 °C 29.86in /  1011.1hPa SW 7.0mph /  11.3km/h 18.0mph /  29km/h 45% 0.00in /  0mm
17:59 72.1 °F /  22.3 °C 49.6 °F /  9.8 °C 29.86in /  1011.1hPa WSW 6.0mph /  9.7km/h 14.0mph /  22.5km/h 45% 0.00in /  0mm
18:04 71.6 °F /  22 °C 48.5 °F /  9.2 °C 29.86in /  1011.1hPa WNW 6.0mph /  9.7km/h 13.0mph /  20.9km/h 44% 0.00in /  0mm
18:09 71.2 °F /  21.8 °C 49.9 °F /  9.9 °C 29.86in /  1011.1hPa West 4.0mph /  6.4km/h 13.0mph /  20.9km/h 47% 0.00in /  0mm
18:14 71.0 °F /  21.7 °C 48.6 °F /  9.2 °C 29.85in /  1010.7hPa WSW 6.0mph /  9.7km/h 13.0mph /  20.9km/h 45% 0.00in /  0mm
18:19 71.0 °F /  21.7 °C 49.2 °F /  9.6 °C 29.85in /  1010.7hPa WSW 6.0mph /  9.7km/h 13.0mph /  20.9km/h 46% 0.00in /  0mm
18:24 71.2 °F /  21.8 °C 48.2 °F /  9 °C 29.85in /  1010.7hPa SW 6.0mph /  9.7km/h 12.0mph /  19.3km/h 44% 0.00in /  0mm
18:29 71.3 °F /  21.8 °C 47.6 °F /  8.7 °C 29.85in /  1010.7hPa WSW 4.0mph /  6.4km/h 14.0mph /  22.5km/h 43% 0.00in /  0mm
18:34 71.2 °F /  21.8 °C 46.9 °F /  8.3 °C 29.85in /  1010.7hPa WSW 5.0mph /  8km/h 10.0mph /  16.1km/h 42% 0.00in /  0mm
18:39 71.3 °F /  21.8 °C 46.4 °F /  8 °C 29.85in /  1010.7hPa WSW 3.0mph /  4.8km/h 13.0mph /  20.9km/h 41% 0.00in /  0mm
18:44 71.4 °F /  21.9 °C 47.7 °F /  8.7 °C 29.85in /  1010.7hPa SW 6.0mph /  9.7km/h 8.0mph /  12.9km/h 43% 0.00in /  0mm
18:49 71.5 °F /  21.9 °C 47.8 °F /  8.8 °C 29.85in /  1010.7hPa SW 4.0mph /  6.4km/h 12.0mph /  19.3km/h 43% 0.00in /  0mm
18:54 71.6 °F /  22 °C 46.0 °F /  7.8 °C 29.85in /  1010.7hPa SW 5.0mph /  8km/h 12.0mph /  19.3km/h 40% 0.00in /  0mm
18:59 71.8 °F /  22.1 °C 46.8 °F /  8.2 °C 29.85in /  1010.7hPa SW 2.0mph /  3.2km/h 8.0mph /  12.9km/h 41% 0.00in /  0mm
19:04 71.9 °F /  22.2 °C 46.3 °F /  7.9 °C 29.85in /  1010.7hPa SW 5.0mph /  8km/h 5.0mph /  8km/h 40% 0.00in /  0mm
19:09 71.9 °F /  22.2 °C 46.3 °F /  7.9 °C 29.85in /  1010.7hPa SW 1.0mph /  1.6km/h 5.0mph /  8km/h 40% 0.00in /  0mm
19:14 71.5 °F /  21.9 °C 45.2 °F /  7.3 °C 29.85in /  1010.7hPa SW 2.0mph /  3.2km/h 4.0mph /  6.4km/h 39% 0.00in /  0mm
19:19 71.5 °F /  21.9 °C 45.2 °F /  7.3 °C 29.84in /  1010.4hPa SW 2.0mph /  3.2km/h 5.0mph /  8km/h 39% 0.00in /  0mm
19:24 71.7 °F /  22.1 °C 44.7 °F /  7.1 °C 29.84in /  1010.4hPa SW 2.0mph /  3.2km/h 5.0mph /  8km/h 38% 0.00in /  0mm
19:29 71.6 °F /  22 °C 45.3 °F /  7.4 °C 29.84in /  1010.4hPa SW 2.0mph /  3.2km/h 5.0mph /  8km/h 39% 0.00in /  0mm
19:34 71.8 °F /  22.1 °C 44.8 °F /  7.1 °C 29.84in /  1010.4hPa WSW 2.0mph /  3.2km/h 6.0mph /  9.7km/h 38% 0.00in /  0mm
19:39 71.7 °F /  22.1 °C 44.0 °F /  6.7 °C 29.84in /  1010.4hPa SW 2.0mph /  3.2km/h 6.0mph /  9.7km/h 37% 0.00in /  0mm
19:44 71.7 °F /  22.1 °C 46.1 °F /  7.8 °C 29.85in /  1010.7hPa SW 4.0mph /  6.4km/h 4.0mph /  6.4km/h 40% 0.00in /  0mm
19:49 71.6 °F /  22 °C 45.3 °F /  7.4 °C 29.85in /  1010.7hPa SW 1.0mph /  1.6km/h 4.0mph /  6.4km/h 39% 0.00in /  0mm
19:54 71.4 °F /  21.9 °C 45.1 °F /  7.3 °C 29.85in /  1010.7hPa SW 1.0mph /  1.6km/h 3.0mph /  4.8km/h 39% 0.00in /  0mm
19:59 71.0 °F /  21.7 °C 46.1 °F /  7.8 °C 29.85in /  1010.7hPa SW 1.0mph /  1.6km/h 3.0mph /  4.8km/h 41% 0.00in /  0mm
20:04 70.4 °F /  21.3 °C 45.6 °F /  7.6 °C 29.85in /  1010.7hPa SW 2.0mph /  3.2km/h 2.0mph /  3.2km/h 41% 0.00in /  0mm
20:09 70.1 °F /  21.2 °C 45.9 °F /  7.7 °C 29.85in /  1010.7hPa SW 1.0mph /  1.6km/h 3.0mph /  4.8km/h 42% 0.00in /  0mm
20:14 69.5 °F /  20.8 °C 46.6 °F /  8.1 °C 29.85in /  1010.7hPa Calm   2.0mph /  3.2km/h 44% 0.00in /  0mm
20:19 69.1 °F /  20.6 °C 46.3 °F /  7.9 °C 29.85in /  1010.7hPa Calm   2.0mph /  3.2km/h 44% 0.00in /  0mm
20:24 68.6 °F /  20.3 °C 46.4 °F /  8 °C 29.85in /  1010.7hPa Calm     45% 0.00in /  0mm
20:29 68.1 °F /  20.1 °C 45.9 °F /  7.7 °C 29.85in /  1010.7hPa Calm     45% 0.00in /  0mm
20:34 68.1 °F /  20.1 °C 45.9 °F /  7.7 °C 29.85in /  1010.7hPa Calm     45% 0.00in /  0mm
20:39 67.7 °F /  19.8 °C 46.7 °F /  8.2 °C 29.85in /  1010.7hPa Calm     47% 0.00in /  0mm
20:44 67.4 °F /  19.7 °C 47.0 °F /  8.3 °C 29.85in /  1010.7hPa Calm     48% 0.00in /  0mm
20:49 67.2 °F /  19.6 °C 47.4 °F /  8.6 °C 29.85in /  1010.7hPa SSW 1.0mph /  1.6km/h 3.0mph /  4.8km/h 49% 0.00in /  0mm
20:54 67.1 °F /  19.5 °C 47.8 °F /  8.8 °C 29.85in /  1010.7hPa WSW 1.0mph /  1.6km/h 6.0mph /  9.7km/h 50% 0.00in /  0mm
20:59 66.9 °F /  19.4 °C 47.6 °F /  8.7 °C 29.85in /  1010.7hPa Calm   2.0mph /  3.2km/h 50% 0.00in /  0mm
21:04 66.6 °F /  19.2 °C 47.4 °F /  8.6 °C 29.85in /  1010.7hPa Calm     50% 0.00in /  0mm
21:09 66.4 °F /  19.1 °C 47.7 °F /  8.7 °C 29.85in /  1010.7hPa SW 1.0mph /  1.6km/h 3.0mph /  4.8km/h 51% 0.00in /  0mm
21:14 66.6 °F /  19.2 °C 47.9 °F /  8.8 °C 29.85in /  1010.7hPa SSW 4.0mph /  6.4km/h 5.0mph /  8km/h 51% 0.00in /  0mm
21:19 67.0 °F /  19.4 °C 48.8 °F /  9.3 °C 29.85in /  1010.7hPa SSW 2.0mph /  3.2km/h 6.0mph /  9.7km/h 52% 0.00in /  0mm
21:24 67.2 °F /  19.6 °C 49.5 °F /  9.7 °C 29.85in /  1010.7hPa SSW 2.0mph /  3.2km/h 6.0mph /  9.7km/h 53% 0.00in /  0mm
21:29 66.8 °F /  19.3 °C 49.6 °F /  9.8 °C 29.85in /  1010.7hPa SSW 1.0mph /  1.6km/h 6.0mph /  9.7km/h 54% 0.00in /  0mm
21:34 66.9 °F /  19.4 °C 50.2 °F /  10.1 °C 29.85in /  1010.7hPa SSW 1.0mph /  1.6km/h 4.0mph /  6.4km/h 55% 0.00in /  0mm
21:39 67.0 °F /  19.4 °C 50.3 °F /  10.2 °C 29.85in /  1010.7hPa SSW 1.0mph /  1.6km/h 5.0mph /  8km/h 55% 0.00in /  0mm
21:44 67.2 °F /  19.6 °C 51.0 °F /  10.6 °C 29.86in /  1011.1hPa Calm   4.0mph /  6.4km/h 56% 0.00in /  0mm
21:49 67.2 °F /  19.6 °C 51.4 °F /  10.8 °C 29.86in /  1011.1hPa SSW 1.0mph /  1.6km/h 4.0mph /  6.4km/h 57% 0.00in /  0mm
21:54 67.1 °F /  19.5 °C 50.9 °F /  10.5 °C 29.86in /  1011.1hPa SSW 1.0mph /  1.6km/h 5.0mph /  8km/h 56% 0.00in /  0mm
21:59 67.1 °F /  19.5 °C 51.4 °F /  10.8 °C 29.86in /  1011.1hPa South 2.0mph /  3.2km/h 5.0mph /  8km/h 57% 0.00in /  0mm
22:04 67.0 °F /  19.4 °C 51.7 °F /  10.9 °C 29.87in /  1011.4hPa South 1.0mph /  1.6km/h 5.0mph /  8km/h 58% 0.00in /  0mm
22:09 66.9 °F /  19.4 °C 51.6 °F /  10.9 °C 29.86in /  1011.1hPa SSW 3.0mph /  4.8km/h 5.0mph /  8km/h 58% 0.00in /  0mm
22:14 66.7 °F /  19.3 °C 51.9 °F /  11.1 °C 29.87in /  1011.4hPa SSW 1.0mph /  1.6km/h 4.0mph /  6.4km/h 59% 0.00in /  0mm
22:19 66.5 °F /  19.2 °C 51.7 °F /  10.9 °C 29.87in /  1011.4hPa SSW 2.0mph /  3.2km/h 5.0mph /  8km/h 59% 0.00in /  0mm
22:24 66.7 °F /  19.3 °C 51.9 °F /  11.1 °C 29.87in /  1011.4hPa SSW 4.0mph /  6.4km/h 9.0mph /  14.5km/h 59% 0.00in /  0mm
22:29 66.9 °F /  19.4 °C 52.1 °F /  11.2 °C 29.87in /  1011.4hPa SSW 1.0mph /  1.6km/h 5.0mph /  8km/h 59% 0.00in /  0mm
22:34 66.9 °F /  19.4 °C 52.1 °F /  11.2 °C 29.87in /  1011.4hPa SSW 3.0mph /  4.8km/h 6.0mph /  9.7km/h 59% 0.00in /  0mm
22:39 66.8 °F /  19.3 °C 52.5 °F /  11.4 °C 29.87in /  1011.4hPa SSW 4.0mph /  6.4km/h 6.0mph /  9.7km/h 60% 0.00in /  0mm
22:44 66.5 °F /  19.2 °C 52.2 °F /  11.2 °C 29.87in /  1011.4hPa SSW 2.0mph /  3.2km/h 6.0mph /  9.7km/h 60% 0.00in /  0mm
22:49 66.7 °F /  19.3 °C 52.4 °F /  11.3 °C 29.87in /  1011.4hPa SSW 2.0mph /  3.2km/h 6.0mph /  9.7km/h 60% 0.00in /  0mm
22:54 66.5 °F /  19.2 °C 52.2 °F /  11.2 °C 29.87in /  1011.4hPa SW 2.0mph /  3.2km/h 6.0mph /  9.7km/h 60% 0.00in /  0mm
22:59 66.4 °F /  19.1 °C 52.5 °F /  11.4 °C 29.87in /  1011.4hPa SSW 1.0mph /  1.6km/h 4.0mph /  6.4km/h 61% 0.00in /  0mm
23:04 65.8 °F /  18.8 °C 52.4 °F /  11.3 °C 29.87in /  1011.4hPa SW 1.0mph /  1.6km/h 4.0mph /  6.4km/h 62% 0.00in /  0mm
23:09 65.2 °F /  18.4 °C 52.3 °F /  11.3 °C 29.87in /  1011.4hPa Calm   3.0mph /  4.8km/h 63% 0.00in /  0mm
23:14 64.7 °F /  18.2 °C 52.2 °F /  11.2 °C 29.87in /  1011.4hPa Calm   2.0mph /  3.2km/h 64% 0.00in /  0mm
23:19 64.5 °F /  18.1 °C 52.5 °F /  11.4 °C 29.87in /  1011.4hPa WSW 2.0mph /  3.2km/h 4.0mph /  6.4km/h 65% 0.00in /  0mm
23:24 64.3 °F /  17.9 °C 52.3 °F /  11.3 °C 29.88in /  1011.7hPa SW 1.0mph /  1.6km/h 5.0mph /  8km/h 65% 0.00in /  0mm
23:29 64.8 °F /  18.2 °C 52.8 °F /  11.6 °C 29.87in /  1011.4hPa SSW 1.0mph /  1.6km/h 4.0mph /  6.4km/h 65% 0.00in /  0mm
23:34 65.1 °F /  18.4 °C 52.6 °F /  11.4 °C 29.88in /  1011.7hPa SSW 3.0mph /  4.8km/h 5.0mph /  8km/h 64% 0.00in /  0mm
23:39 65.1 °F /  18.4 °C 52.6 °F /  11.4 °C 29.88in /  1011.7hPa SW 3.0mph /  4.8km/h 6.0mph /  9.7km/h 64% 0.00in /  0mm
23:44 65.1 °F /  18.4 °C 52.6 °F /  11.4 °C 29.88in /  1011.7hPa SSW 3.0mph /  4.8km/h 6.0mph /  9.7km/h 64% 0.00in /  0mm
23:49 65.1 °F /  18.4 °C 52.6 °F /  11.4 °C 29.88in /  1011.7hPa Calm   4.0mph /  6.4km/h 64% 0.00in /  0mm
23:54 64.8 °F /  18.2 °C 52.8 °F /  11.6 °C 29.88in /  1011.7hPa SSW 1.0mph /  1.6km/h 5.0mph /  8km/h 65% 0.00in /  0mm
23:59 64.5 °F /  18.1 °C 52.9 °F /  11.6 °C 29.87in /  1011.4hPa SW 1.0mph /  1.6km/h 5.0mph /  8km/h 66% 0.00in /  0mm
Buffalo, New York, USA
Compliments of Weather Underground - 2.5 mb